sensor_id;sensor_type;location;lat;lon;timestamp;pressure;altitude;pressure_sealevel;temperature;humidity
61119;BME280;51448;51.660;5.824;2023-04-22T00:01:15;100754.19;;;8.48;98.71
61119;BME280;51448;51.660;5.824;2023-04-22T00:03:43;100756.84;;;8.46;98.56
61119;BME280;51448;51.660;5.824;2023-04-22T00:06:12;100758.63;;;8.44;98.61
61119;BME280;51448;51.660;5.824;2023-04-22T00:08:39;100758.72;;;8.41;98.43
61119;BME280;51448;51.660;5.824;2023-04-22T00:11:07;100757.84;;;8.39;98.78
61119;BME280;51448;51.660;5.824;2023-04-22T00:13:35;100753.56;;;8.35;98.33
61119;BME280;51448;51.660;5.824;2023-04-22T00:16:03;100755.34;;;8.33;98.65
61119;BME280;51448;51.660;5.824;2023-04-22T00:18:34;100746.66;;;8.31;98.93
61119;BME280;51448;51.660;5.824;2023-04-22T00:21:03;100759.81;;;8.28;99.10
61119;BME280;51448;51.660;5.824;2023-04-22T00:23:31;100749.41;;;8.25;99.19
61119;BME280;51448;51.660;5.824;2023-04-22T00:25:59;100746.78;;;8.25;99.29
61119;BME280;51448;51.660;5.824;2023-04-22T00:28:28;100742.50;;;8.21;99.22
61119;BME280;51448;51.660;5.824;2023-04-22T00:30:55;100739.03;;;8.19;99.80
61119;BME280;51448;51.660;5.824;2023-04-22T00:33:25;100740.81;;;8.17;99.71
61119;BME280;51448;51.660;5.824;2023-04-22T00:35:52;100740.00;;;8.13;99.91
61119;BME280;51448;51.660;5.824;2023-04-22T00:38:21;100744.44;;;8.10;100.00
61119;BME280;51448;51.660;5.824;2023-04-22T00:40:49;100735.81;;;8.06;100.00
61119;BME280;51448;51.660;5.824;2023-04-22T00:43:18;100734.09;;;8.03;100.00
61119;BME280;51448;51.660;5.824;2023-04-22T00:45:46;100732.41;;;8.01;100.00
61119;BME280;51448;51.660;5.824;2023-04-22T00:48:15;100734.19;;;7.99;100.00
61119;BME280;51448;51.660;5.824;2023-04-22T00:50:43;100729.88;;;7.96;100.00
61119;BME280;51448;51.660;5.824;2023-04-22T00:53:11;100729.91;;;7.93;100.00
61119;BME280;51448;51.660;5.824;2023-04-22T00:55:39;100716.03;;;7.90;100.00
61119;BME280;51448;51.660;5.824;2023-04-22T00:58:08;100722.16;;;7.89;100.00
61119;BME280;51448;51.660;5.824;2023-04-22T01:00:36;100727.41;;;7.87;100.00
61119;BME280;51448;51.660;5.824;2023-04-22T01:03:05;100722.22;;;7.85;100.00
61119;BME280;51448;51.660;5.824;2023-04-22T01:05:34;100726.56;;;7.86;100.00
61119;BME280;51448;51.660;5.824;2023-04-22T01:08:02;100728.31;;;7.86;100.00
61119;BME280;51448;51.660;5.824;2023-04-22T01:10:30;100719.63;;;7.84;100.00
61119;BME280;51448;51.660;5.824;2023-04-22T01:12:57;100722.25;;;7.84;100.00
61119;BME280;51448;51.660;5.824;2023-04-22T01:15:25;100714.38;;;7.84;100.00
61119;BME280;51448;51.660;5.824;2023-04-22T01:17:55;100712.66;;;7.83;100.00
61119;BME280;51448;51.660;5.824;2023-04-22T01:20:23;100715.31;;;7.81;100.00
61119;BME280;51448;51.660;5.824;2023-04-22T01:22:57;100717.97;;;7.80;100.00
61119;BME280;51448;51.660;5.824;2023-04-22T01:25:30;100714.50;;;7.78;100.00
61119;BME280;51448;51.660;5.824;2023-04-22T01:27:58;100711.88;;;7.78;100.00
61119;BME280;51448;51.660;5.824;2023-04-22T01:30:26;100708.41;;;7.77;100.00
61119;BME280;51448;51.660;5.824;2023-04-22T01:32:54;100704.03;;;7.78;100.00
61119;BME280;51448;51.660;5.824;2023-04-22T01:35:22;100704.88;;;7.78;100.00
61119;BME280;51448;51.660;5.824;2023-04-22T01:37:50;100698.72;;;7.81;100.00
61119;BME280;51448;51.660;5.824;2023-04-22T01:40:19;100703.94;;;7.82;100.00
61119;BME280;51448;51.660;5.824;2023-04-22T01:42:49;100711.78;;;7.82;100.00
61119;BME280;51448;51.660;5.824;2023-04-22T01:45:17;100710.84;;;7.85;100.00
61119;BME280;51448;51.660;5.824;2023-04-22T01:47:45;100709.97;;;7.88;100.00
61119;BME280;51448;51.660;5.824;2023-04-22T01:50:12;100711.66;;;7.90;100.00
61119;BME280;51448;51.660;5.824;2023-04-22T01:52:40;100708.97;;;7.93;100.00
61119;BME280;51448;51.660;5.824;2023-04-22T01:55:08;100718.53;;;7.96;100.00
61119;BME280;51448;51.660;5.824;2023-04-22T01:57:36;100712.50;;;7.91;100.00
61119;BME280;51448;51.660;5.824;2023-04-22T02:00:06;100707.41;;;7.83;100.00
61119;BME280;51448;51.660;5.824;2023-04-22T02:02:44;100707.59;;;7.74;100.00
61119;BME280;51448;51.660;5.824;2023-04-22T02:05:12;100698.06;;;7.70;100.00
61119;BME280;51448;51.660;5.824;2023-04-22T02:07:40;100695.50;;;7.66;100.00
61119;BME280;51448;51.660;5.824;2023-04-22T02:10:08;100702.50;;;7.64;100.00
61119;BME280;51448;51.660;5.824;2023-04-22T02:12:38;100700.81;;;7.63;100.00
61119;BME280;51448;51.660;5.824;2023-04-22T02:15:06;100700.81;;;7.63;100.00
61119;BME280;51448;51.660;5.824;2023-04-22T02:17:34;100699.91;;;7.64;100.00
61119;BME280;51448;51.660;5.824;2023-04-22T02:20:03;100704.25;;;7.65;100.00
61119;BME280;51448;51.660;5.824;2023-04-22T02:22:32;100706.84;;;7.67;100.00
61119;BME280;51448;51.660;5.824;2023-04-22T02:24:59;100693.72;;;7.69;100.00
61119;BME280;51448;51.660;5.824;2023-04-22T02:27:27;100697.16;;;7.71;100.00
61119;BME280;51448;51.660;5.824;2023-04-22T02:29:55;100698.00;;;7.73;100.00
61119;BME280;51448;51.660;5.824;2023-04-22T02:32:23;100695.34;;;7.76;100.00
61119;BME280;51448;51.660;5.824;2023-04-22T02:34:52;100694.44;;;7.77;100.00
61119;BME280;51448;51.660;5.824;2023-04-22T02:37:20;100690.91;;;7.79;100.00
61119;BME280;51448;51.660;5.824;2023-04-22T02:39:49;100690.00;;;7.82;100.00
61119;BME280;51448;51.660;5.824;2023-04-22T02:42:17;100689.06;;;7.84;100.00
61119;BME280;51448;51.660;5.824;2023-04-22T02:44:44;100683.81;;;7.86;100.00
61119;BME280;51448;51.660;5.824;2023-04-22T02:47:12;100688.09;;;7.89;100.00
61119;BME280;51448;51.660;5.824;2023-04-22T02:49:40;100682.84;;;7.90;100.00
61119;BME280;51448;51.660;5.824;2023-04-22T02:52:09;100682.88;;;7.89;100.00
61119;BME280;51448;51.660;5.824;2023-04-22T02:54:37;100677.63;;;7.89;100.00
61119;BME280;51448;51.660;5.824;2023-04-22T02:57:05;100679.41;;;7.88;100.00
61119;BME280;51448;51.660;5.824;2023-04-22T02:59:34;100672.41;;;7.87;100.00
61119;BME280;51448;51.660;5.824;2023-04-22T03:02:04;100671.56;;;7.86;100.00
61119;BME280;51448;51.660;5.824;2023-04-22T03:04:59;100668.09;;;7.86;100.00
61119;BME280;51448;51.660;5.824;2023-04-22T03:07:30;100661.06;;;7.88;100.00
61119;BME280;51448;51.660;5.824;2023-04-22T03:09:59;100667.16;;;7.89;100.00
61119;BME280;51448;51.660;5.824;2023-04-22T03:12:26;100658.44;;;7.90;100.00
61119;BME280;51448;51.660;5.824;2023-04-22T03:14:54;100674.09;;;7.91;100.00
61119;BME280;51448;51.660;5.824;2023-04-22T03:17:24;100663.56;;;7.94;100.00
61119;BME280;51448;51.660;5.824;2023-04-22T03:19:52;100660.91;;;7.96;100.00
61119;BME280;51448;51.660;5.824;2023-04-22T03:22:21;100670.47;;;7.98;100.00
61119;BME280;51448;51.660;5.824;2023-04-22T03:24:51;100662.59;;;8.00;100.00
61119;BME280;51448;51.660;5.824;2023-04-22T03:27:19;100661.69;;;8.01;100.00
61119;BME280;51448;51.660;5.824;2023-04-22T03:29:47;100659.03;;;8.02;100.00
61119;BME280;51448;51.660;5.824;2023-04-22T03:32:15;100659.03;;;8.02;100.00
61119;BME280;51448;51.660;5.824;2023-04-22T03:34:43;100648.56;;;8.02;100.00
61119;BME280;51448;51.660;5.824;2023-04-22T03:37:11;100644.19;;;8.03;100.00
61119;BME280;51448;51.660;5.824;2023-04-22T03:39:39;100640.69;;;8.04;100.00
61119;BME280;51448;51.660;5.824;2023-04-22T03:42:09;100638.91;;;8.04;100.00
61119;BME280;51448;51.660;5.824;2023-04-22T03:44:41;100636.31;;;8.03;100.00
61119;BME280;51448;51.660;5.824;2023-04-22T03:47:10;100623.22;;;8.03;100.00
61119;BME280;51448;51.660;5.824;2023-04-22T03:49:44;100625.81;;;8.04;100.00
61119;BME280;51448;51.660;5.824;2023-04-22T03:52:13;100624.06;;;8.03;100.00
61119;BME280;51448;51.660;5.824;2023-04-22T03:54:47;100619.75;;;8.02;100.00
61119;BME280;51448;51.660;5.824;2023-04-22T03:57:15;100618.84;;;8.03;100.00
61119;BME280;51448;51.660;5.824;2023-04-22T03:59:42;100622.38;;;8.02;100.00
61119;BME280;51448;51.660;5.824;2023-04-22T04:02:11;100619.72;;;8.04;100.00
61119;BME280;51448;51.660;5.824;2023-04-22T04:04:39;100621.44;;;8.05;100.00
61119;BME280;51448;51.660;5.824;2023-04-22T04:07:08;100613.56;;;8.05;100.00
61119;BME280;51448;51.660;5.824;2023-04-22T04:09:36;100621.41;;;8.06;100.00
61119;BME280;51448;51.660;5.824;2023-04-22T04:12:05;100618.78;;;8.06;100.00
61119;BME280;51448;51.660;5.824;2023-04-22T04:14:38;100614.41;;;8.07;100.00
61119;BME280;51448;51.660;5.824;2023-04-22T04:17:06;100607.47;;;8.06;100.00
61119;BME280;51448;51.660;5.824;2023-04-22T04:19:41;100609.16;;;8.07;100.00
61119;BME280;51448;51.660;5.824;2023-04-22T04:22:09;100614.34;;;8.10;100.00
61119;BME280;51448;51.660;5.824;2023-04-22T04:24:47;100611.75;;;8.10;100.00
61119;BME280;51448;51.660;5.824;2023-04-22T04:27:20;100607.34;;;8.11;100.00
61119;BME280;51448;51.660;5.824;2023-04-22T04:29:52;100604.72;;;8.12;100.00
61119;BME280;51448;51.660;5.824;2023-04-22T04:32:51;100598.59;;;8.12;100.00
61119;BME280;51448;51.660;5.824;2023-04-22T04:35:20;100598.56;;;8.13;100.00
61119;BME280;51448;51.660;5.824;2023-04-22T04:37:52;100603.75;;;8.16;100.00
61119;BME280;51448;51.660;5.824;2023-04-22T04:40:20;100597.59;;;8.17;100.00
61119;BME280;51448;51.660;5.824;2023-04-22T04:42:55;100596.66;;;8.20;100.00
61119;BME280;51448;51.660;5.824;2023-04-22T04:45:35;100601.03;;;8.21;100.00
61119;BME280;51448;51.660;5.824;2023-04-22T04:48:04;100607.94;;;8.23;100.00
61119;BME280;51448;51.660;5.824;2023-04-22T04:50:42;100607.91;;;8.25;100.00
61119;BME280;51448;51.660;5.824;2023-04-22T04:53:11;100600.94;;;8.24;100.00
61119;BME280;51448;51.660;5.824;2023-04-22T04:55:42;100609.63;;;8.26;100.00
61119;BME280;51448;51.660;5.824;2023-04-22T04:58:17;100606.16;;;8.25;100.00
61119;BME280;51448;51.660;5.824;2023-04-22T05:00:47;100603.50;;;8.27;100.00
61119;BME280;51448;51.660;5.824;2023-04-22T05:03:16;100606.94;;;8.29;100.00
61119;BME280;51448;51.660;5.824;2023-04-22T05:05:45;100602.53;;;8.31;100.00
61119;BME280;51448;51.660;5.824;2023-04-22T05:08:15;100599.84;;;8.34;100.00
61119;BME280;51448;51.660;5.824;2023-04-22T05:10:46;100599.78;;;8.37;100.00
61119;BME280;51448;51.660;5.824;2023-04-22T05:13:15;100604.06;;;8.40;100.00
61119;BME280;51448;51.660;5.824;2023-04-22T05:15:46;100613.66;;;8.42;100.00
61119;BME280;51448;51.660;5.824;2023-04-22T05:18:14;100613.63;;;8.44;100.00
61119;BME280;51448;51.660;5.824;2023-04-22T05:20:43;100616.13;;;8.49;100.00
61119;BME280;51448;51.660;5.824;2023-04-22T05:23:11;100610.84;;;8.52;100.00
61119;BME280;51448;51.660;5.824;2023-04-22T05:25:39;100608.13;;;8.55;100.00
61119;BME280;51448;51.660;5.824;2023-04-22T05:28:10;100615.09;;;8.57;100.00
61119;BME280;51448;51.660;5.824;2023-04-22T05:30:45;100608.00;;;8.61;100.00
61119;BME280;51448;51.660;5.824;2023-04-22T05:33:14;100614.03;;;8.64;100.00
61119;BME280;51448;51.660;5.824;2023-04-22T05:35:42;100625.31;;;8.68;100.00
61119;BME280;51448;51.660;5.824;2023-04-22T05:38:11;100613.88;;;8.71;100.00
61119;BME280;51448;51.660;5.824;2023-04-22T05:40:41;100602.44;;;8.73;100.00
61119;BME280;51448;51.660;5.824;2023-04-22T05:43:11;100599.75;;;8.78;100.00
61119;BME280;51448;51.660;5.824;2023-04-22T05:45:43;100603.28;;;8.75;100.00
61119;BME280;51448;51.660;5.824;2023-04-22T05:48:13;100597.97;;;8.78;100.00
61119;BME280;51448;51.660;5.824;2023-04-22T05:50:50;100599.59;;;8.84;100.00
61119;BME280;51448;51.660;5.824;2023-04-22T05:53:21;100609.13;;;8.86;100.00
61119;BME280;51448;51.660;5.824;2023-04-22T05:55:49;100616.03;;;8.91;100.00
61119;BME280;51448;51.660;5.824;2023-04-22T05:58:17;100608.91;;;8.96;100.00
61119;BME280;51448;51.660;5.824;2023-04-22T06:00:53;100620.97;;;9.03;100.00
61119;BME280;51448;51.660;5.824;2023-04-22T06:03:41;100612.09;;;9.09;100.00
61119;BME280;51448;51.660;5.824;2023-04-22T06:06:09;100611.03;;;9.16;100.00
61119;BME280;51448;51.660;5.824;2023-04-22T06:08:39;100615.22;;;9.23;100.00
61119;BME280;51448;51.660;5.824;2023-04-22T06:11:07;100620.38;;;9.26;100.00
61119;BME280;51448;51.660;5.824;2023-04-22T06:13:36;100615.06;;;9.29;100.00
61119;BME280;51448;51.660;5.824;2023-04-22T06:16:05;100615.00;;;9.31;100.00
61119;BME280;51448;51.660;5.824;2023-04-22T06:18:37;100608.78;;;9.35;100.00
61119;BME280;51448;51.660;5.824;2023-04-22T06:21:10;100590.38;;;9.36;100.00
61119;BME280;51448;51.660;5.824;2023-04-22T06:23:41;100599.03;;;9.40;100.00
61119;BME280;51448;51.660;5.824;2023-04-22T06:26:09;100589.25;;;9.45;100.00
61119;BME280;51448;51.660;5.824;2023-04-22T06:28:37;100591.63;;;9.54;100.00
61119;BME280;51448;51.660;5.824;2023-04-22T06:31:11;100597.50;;;9.64;100.00
61119;BME280;51448;51.660;5.824;2023-04-22T06:33:39;100593.72;;;9.74;100.00
61119;BME280;51448;51.660;5.824;2023-04-22T06:36:07;100580.16;;;9.88;100.00
61119;BME280;51448;51.660;5.824;2023-04-22T06:38:37;100579.78;;;10.00;100.00
61119;BME280;51448;51.660;5.824;2023-04-22T06:41:24;100574.97;;;10.15;100.00
61119;BME280;51448;51.660;5.824;2023-04-22T06:43:57;100566.72;;;10.27;100.00
61119;BME280;51448;51.660;5.824;2023-04-22T06:46:45;100574.13;;;10.44;100.00
61119;BME280;51448;51.660;5.824;2023-04-22T06:49:31;100568.22;;;10.64;100.00
61119;BME280;51448;51.660;5.824;2023-04-22T06:52:18;100575.38;;;10.87;100.00
61119;BME280;51448;51.660;5.824;2023-04-22T06:54:48;100586.81;;;11.11;100.00
61119;BME280;51448;51.660;5.824;2023-04-22T06:57:16;100583.41;;;11.34;100.00
61119;BME280;51448;51.660;5.824;2023-04-22T06:59:44;100579.03;;;11.58;100.00
61119;BME280;51448;51.660;5.824;2023-04-22T07:02:14;100572.94;;;11.81;100.00
61119;BME280;51448;51.660;5.824;2023-04-22T07:04:43;100568.50;;;12.05;100.00
61119;BME280;51448;51.660;5.824;2023-04-22T07:07:11;100565.72;;;12.32;100.00
61119;BME280;51448;51.660;5.824;2023-04-22T07:09:40;100570.00;;;12.57;100.00
61119;BME280;51448;51.660;5.824;2023-04-22T07:12:08;100563.19;;;12.73;100.00
61119;BME280;51448;51.660;5.824;2023-04-22T07:14:36;100566.00;;;12.91;100.00
61119;BME280;51448;51.660;5.824;2023-04-22T07:17:04;100557.41;;;13.06;100.00
61119;BME280;51448;51.660;5.824;2023-04-22T07:19:31;100553.13;;;13.24;100.00
61119;BME280;51448;51.660;5.824;2023-04-22T07:22:01;100556.78;;;13.42;100.00
61119;BME280;51448;51.660;5.824;2023-04-22T07:24:33;100563.09;;;13.58;100.00
61119;BME280;51448;51.660;5.824;2023-04-22T07:27:01;100555.34;;;13.74;100.00
61119;BME280;51448;51.660;5.824;2023-04-22T07:29:29;100553.78;;;13.89;100.00
61119;BME280;51448;51.660;5.824;2023-04-22T07:31:57;100558.28;;;14.06;100.00
61119;BME280;51448;51.660;5.824;2023-04-22T07:34:25;100553.13;;;14.22;100.00
61119;BME280;51448;51.660;5.824;2023-04-22T07:36:53;100549.72;;;14.37;97.58
61119;BME280;51448;51.660;5.824;2023-04-22T07:39:21;100555.22;;;14.52;96.76
61119;BME280;51448;51.660;5.824;2023-04-22T07:41:52;100562.03;;;14.57;97.33
61119;BME280;51448;51.660;5.824;2023-04-22T07:44:22;100558.06;;;14.66;98.60
61119;BME280;51448;51.660;5.824;2023-04-22T07:46:50;100555.03;;;14.74;98.16
61119;BME280;51448;51.660;5.824;2023-04-22T07:49:18;100556.69;;;14.76;98.62
61119;BME280;51448;51.660;5.824;2023-04-22T07:51:46;100558.41;;;14.77;98.32
61119;BME280;51448;51.660;5.824;2023-04-22T07:54:14;100561.75;;;14.81;98.44
61119;BME280;51448;51.660;5.824;2023-04-22T07:56:42;100558.09;;;14.83;98.83
61119;BME280;51448;51.660;5.824;2023-04-22T07:59:09;100561.44;;;15.04;98.22
61119;BME280;51448;51.660;5.824;2023-04-22T08:01:37;100569.16;;;15.26;98.11
61119;BME280;51448;51.660;5.824;2023-04-22T08:04:05;100565.28;;;15.49;98.21
61119;BME280;51448;51.660;5.824;2023-04-22T08:06:34;100566.81;;;15.71;97.54
61119;BME280;51448;51.660;5.824;2023-04-22T08:09:02;100564.19;;;15.87;96.82
61119;BME280;51448;51.660;5.824;2023-04-22T08:11:30;100566.38;;;15.96;95.74
61119;BME280;51448;51.660;5.824;2023-04-22T08:13:57;100552.00;;;16.00;92.19
61119;BME280;51448;51.660;5.824;2023-04-22T08:16:25;100532.59;;;16.00;92.63
61119;BME280;51448;51.660;5.824;2023-04-22T08:18:53;100534.78;;;16.07;92.85
61119;BME280;51448;51.660;5.824;2023-04-22T08:21:22;100529.13;;;16.14;92.31
61119;BME280;51448;51.660;5.824;2023-04-22T08:23:50;100535.13;;;16.17;90.91
61119;BME280;51448;51.660;5.824;2023-04-22T08:26:18;100531.44;;;16.20;91.21
61119;BME280;51448;51.660;5.824;2023-04-22T08:28:46;100534.03;;;16.21;91.38
61119;BME280;51448;51.660;5.824;2023-04-22T08:31:13;100539.94;;;16.26;90.35
61119;BME280;51448;51.660;5.824;2023-04-22T08:33:41;100528.28;;;16.29;90.47
61119;BME280;51448;51.660;5.824;2023-04-22T08:36:09;100525.19;;;16.37;90.17
61119;BME280;51448;51.660;5.824;2023-04-22T08:38:37;100526.47;;;16.45;89.54
61119;BME280;51448;51.660;5.824;2023-04-22T08:41:05;100528.56;;;16.55;89.41
61119;BME280;51448;51.660;5.824;2023-04-22T08:43:34;100524.97;;;16.72;89.78
61119;BME280;51448;51.660;5.824;2023-04-22T08:46:02;100519.53;;;16.89;88.39
61119;BME280;51448;51.660;5.824;2023-04-22T08:48:31;100519.47;;;17.05;88.29
61119;BME280;51448;51.660;5.824;2023-04-22T08:50:59;100515.50;;;17.26;88.06
61119;BME280;51448;51.660;5.824;2023-04-22T08:53:27;100511.25;;;17.53;87.53
61119;BME280;51448;51.660;5.824;2023-04-22T08:55:55;100510.31;;;17.68;87.07
61119;BME280;51448;51.660;5.824;2023-04-22T08:58:24;100500.88;;;17.77;86.90
61119;BME280;51448;51.660;5.824;2023-04-22T09:00:53;100504.41;;;17.92;87.23
61119;BME280;51448;51.660;5.824;2023-04-22T09:03:21;100496.19;;;18.09;86.66
61119;BME280;51448;51.660;5.824;2023-04-22T09:05:50;100492.34;;;18.27;85.28
61119;BME280;51448;51.660;5.824;2023-04-22T09:08:19;100489.81;;;18.39;83.29
61119;BME280;51448;51.660;5.824;2023-04-22T09:10:47;100484.81;;;18.47;82.72
61119;BME280;51448;51.660;5.824;2023-04-22T09:13:15;100479.53;;;18.60;82.81
61119;BME280;51448;51.660;5.824;2023-04-22T09:15:44;100475.94;;;18.74;81.17
61119;BME280;51448;51.660;5.824;2023-04-22T09:18:16;100476.03;;;18.72;75.90
61119;BME280;51448;51.660;5.824;2023-04-22T09:20:46;100476.84;;;18.60;77.34
61119;BME280;51448;51.660;5.824;2023-04-22T09:23:17;100479.41;;;18.61;77.40
61119;BME280;51448;51.660;5.824;2023-04-22T09:25:46;100464.09;;;18.65;78.01
61119;BME280;51448;51.660;5.824;2023-04-22T09:28:17;100460.28;;;18.69;77.28
61119;BME280;51448;51.660;5.824;2023-04-22T09:30:46;100466.84;;;18.63;75.47
61119;BME280;51448;51.660;5.824;2023-04-22T09:33:14;100470.38;;;18.64;77.66
61119;BME280;51448;51.660;5.824;2023-04-22T09:35:42;100470.91;;;18.69;76.45
61119;BME280;51448;51.660;5.824;2023-04-22T09:38:11;100473.53;;;18.83;76.88
61119;BME280;51448;51.660;5.824;2023-04-22T09:40:43;100477.59;;;19.02;74.93
61119;BME280;51448;51.660;5.824;2023-04-22T09:43:11;100475.78;;;19.15;76.72
61119;BME280;51448;51.660;5.824;2023-04-22T09:45:40;100475.25;;;19.23;75.88
61119;BME280;51448;51.660;5.824;2023-04-22T09:48:10;100470.13;;;19.33;75.90
61119;BME280;51448;51.660;5.824;2023-04-22T09:50:46;100469.69;;;19.39;74.38
61119;BME280;51448;51.660;5.824;2023-04-22T09:53:19;100462.19;;;19.44;70.06
61119;BME280;51448;51.660;5.824;2023-04-22T09:55:50;100464.88;;;19.44;70.57
61119;BME280;51448;51.660;5.824;2023-04-22T09:58:20;100459.84;;;19.52;71.47
61119;BME280;51448;51.660;5.824;2023-04-22T10:00:57;100455.56;;;19.62;70.56
61119;BME280;51448;51.660;5.824;2023-04-22T10:03:30;100458.56;;;19.70;71.02
61119;BME280;51448;51.660;5.824;2023-04-22T10:05:58;100460.03;;;19.75;69.28
61119;BME280;51448;51.660;5.824;2023-04-22T10:08:26;100449.34;;;19.75;69.10
61119;BME280;51448;51.660;5.824;2023-04-22T10:10:54;100465.56;;;19.84;69.62
61119;BME280;51448;51.660;5.824;2023-04-22T10:13:22;100462.09;;;19.95;70.49
61119;BME280;51448;51.660;5.824;2023-04-22T10:15:51;100465.34;;;20.12;70.57
61119;BME280;51448;51.660;5.824;2023-04-22T10:18:23;100463.47;;;20.25;68.25
61119;BME280;51448;51.660;5.824;2023-04-22T10:20:55;100457.13;;;20.39;70.21
61119;BME280;51448;51.660;5.824;2023-04-22T10:23:25;100470.00;;;20.45;70.00
61119;BME280;51448;51.660;5.824;2023-04-22T10:25:58;100461.88;;;20.46;68.83
61119;BME280;51448;51.660;5.824;2023-04-22T10:28:27;100463.06;;;20.42;65.81
61119;BME280;51448;51.660;5.824;2023-04-22T10:30:56;100462.56;;;20.37;67.69
61119;BME280;51448;51.660;5.824;2023-04-22T10:41:33;100469.25;;;20.67;67.98
61119;BME280;51448;51.660;5.824;2023-04-22T10:44:07;100475.09;;;20.72;66.93
61119;BME280;51448;51.660;5.824;2023-04-22T10:49:24;100471.72;;;20.81;64.98
61119;BME280;51448;51.660;5.824;2023-04-22T10:51:57;100475.22;;;20.70;65.11
61119;BME280;51448;51.660;5.824;2023-04-22T10:59:30;100469.03;;;20.70;65.71
61119;BME280;51448;51.660;5.824;2023-04-22T11:02:04;100465.38;;;20.71;66.60
61119;BME280;51448;51.660;5.824;2023-04-22T11:04:33;100473.16;;;20.74;66.42
61119;BME280;51448;51.660;5.824;2023-04-22T11:07:30;100463.44;;;20.73;65.51
61119;BME280;51448;51.660;5.824;2023-04-22T11:10:09;100466.72;;;20.65;65.92
61119;BME280;51448;51.660;5.824;2023-04-22T11:13:36;100451.06;;;20.83;65.13
61119;BME280;51448;51.660;5.824;2023-04-22T11:16:27;100437.00;;;20.93;65.62
61119;BME280;51448;51.660;5.824;2023-04-22T11:19:10;100441.97;;;20.97;65.10
61119;BME280;51448;51.660;5.824;2023-04-22T11:21:45;100455.97;;;21.01;65.10
61119;BME280;51448;51.660;5.824;2023-04-22T11:24:27;100445.75;;;21.06;65.60
61119;BME280;51448;51.660;5.824;2023-04-22T11:27:06;100452.94;;;21.05;65.51
61119;BME280;51448;51.660;5.824;2023-04-22T11:29:34;100449.91;;;20.99;65.37
61119;BME280;51448;51.660;5.824;2023-04-22T11:32:09;100443.06;;;20.83;65.73
61119;BME280;51448;51.660;5.824;2023-04-22T11:34:38;100446.91;;;20.68;66.18
61119;BME280;51448;51.660;5.824;2023-04-22T11:37:09;100456.94;;;20.53;66.77
61119;BME280;51448;51.660;5.824;2023-04-22T11:39:38;100458.06;;;20.38;67.24
61119;BME280;51448;51.660;5.824;2023-04-22T11:42:29;100460.53;;;20.17;66.85
61119;BME280;51448;51.660;5.824;2023-04-22T11:44:59;100454.09;;;19.95;66.94
61119;BME280;51448;51.660;5.824;2023-04-22T11:47:37;100446.88;;;19.84;67.36
61119;BME280;51448;51.660;5.824;2023-04-22T11:50:08;100444.56;;;19.80;68.09
61119;BME280;51448;51.660;5.824;2023-04-22T11:52:43;100436.31;;;19.83;67.61
61119;BME280;51448;51.660;5.824;2023-04-22T11:55:32;100442.38;;;19.85;68.19
61119;BME280;51448;51.660;5.824;2023-04-22T11:58:14;100442.38;;;19.85;68.50
61119;BME280;51448;51.660;5.824;2023-04-22T12:00:47;100444.66;;;19.78;68.81
61119;BME280;51448;51.660;5.824;2023-04-22T12:03:21;100434.66;;;19.69;68.36
61119;BME280;51448;51.660;5.824;2023-04-22T12:05:59;100444.28;;;19.59;68.68
61119;BME280;51448;51.660;5.824;2023-04-22T12:11:04;100439.06;;;19.44;69.25
61119;BME280;51448;51.660;5.824;2023-04-22T12:13:41;100441.94;;;19.41;69.33
61119;BME280;51448;51.660;5.824;2023-04-22T12:16:14;100438.53;;;19.39;70.07
61119;BME280;51448;51.660;5.824;2023-04-22T12:18:52;100438.19;;;19.44;70.45
61119;BME280;51448;51.660;5.824;2023-04-22T12:21:23;100437.03;;;19.48;70.48
61119;BME280;51448;51.660;5.824;2023-04-22T12:23:57;100439.38;;;19.53;70.68
61119;BME280;51448;51.660;5.824;2023-04-22T12:26:26;100442.78;;;19.55;70.78
61119;BME280;51448;51.660;5.824;2023-04-22T12:28:55;100441.91;;;19.54;70.51
61119;BME280;51448;51.660;5.824;2023-04-22T12:31:25;100438.63;;;19.50;70.34
61119;BME280;51448;51.660;5.824;2023-04-22T12:33:54;100434.34;;;19.48;70.47
61119;BME280;51448;51.660;5.824;2023-04-22T12:36:23;100441.00;;;19.42;70.85
61119;BME280;51448;51.660;5.824;2023-04-22T12:38:51;100447.50;;;19.38;71.21
61119;BME280;51448;51.660;5.824;2023-04-22T12:41:19;100455.22;;;19.30;71.11
61119;BME280;51448;51.660;5.824;2023-04-22T12:43:47;100455.00;;;19.20;71.65
61119;BME280;51448;51.660;5.824;2023-04-22T12:46:15;100457.34;;;19.12;72.79
61119;BME280;51448;51.660;5.824;2023-04-22T12:48:43;100450.53;;;19.08;74.33
61119;BME280;51448;51.660;5.824;2023-04-22T12:51:10;100452.63;;;19.03;74.55
61119;BME280;51448;51.660;5.824;2023-04-22T12:53:38;100457.53;;;18.96;75.07
61119;BME280;51448;51.660;5.824;2023-04-22T12:56:06;100457.31;;;18.86;75.91
61119;BME280;51448;51.660;5.824;2023-04-22T12:58:34;100453.69;;;18.75;76.38
61119;BME280;51448;51.660;5.824;2023-04-22T13:01:02;100461.53;;;18.63;76.49
61119;BME280;51448;51.660;5.824;2023-04-22T13:03:29;100453.63;;;18.49;76.92
61119;BME280;51448;51.660;5.824;2023-04-22T13:05:58;100466.06;;;18.36;77.49
61119;BME280;51448;51.660;5.824;2023-04-22T13:08:25;100466.22;;;18.20;77.79
61119;BME280;51448;51.660;5.824;2023-04-22T13:10:56;100468.81;;;18.07;78.72
61119;BME280;51448;51.660;5.824;2023-04-22T13:13:23;100473.13;;;17.95;79.42
61119;BME280;51448;51.660;5.824;2023-04-22T13:15:51;100481.13;;;17.81;80.29
61119;BME280;51448;51.660;5.824;2023-04-22T13:18:21;100482.81;;;17.67;80.82
61119;BME280;51448;51.660;5.824;2023-04-22T13:20:49;100480.84;;;17.57;81.71
61119;BME280;51448;51.660;5.824;2023-04-22T13:23:17;100486.75;;;17.47;82.51
61119;BME280;51448;51.660;5.824;2023-04-22T13:25:49;100494.44;;;17.38;83.21